Aérodrome :
LOGIN :

S'inscrire | Disclaimer

   EN    FR    IT 

 










Légende :    VFR   VFR Marginal   IFR   IFR Intensif   IFR Très Intensif
Visi : 
Plafond : 
>= 8 km
>= 3000ft
5 à 8 km
1000 à 3000 ft
1500m à 5 km
500 à 1000 ft
800 à 1500m
200 à 500 ft
< 800m
< 200 ft
Symboles :   Orages  Brouillard  Fortes neiges  Fortes précipitations  Vent > 20 kt
SIGMETs :   Divers  Orages  Givrage  Turbulence  Onde Orograph.  Cendres Volcan.







- Altitude de l'aérodrome : 38 ft
- Code IATA : BOH
- Voir les cartes d'approche


EGHH - Bournemouth

DERNIER METAR :
  • 181520Z 25012KT 9999 FEW021 BKN027 19/13 Q1021

METARs EXPIRÉS :
  • 181450Z 25012KT 9999 SCT028 BKN038 20/14 Q1021
  • 181420Z 24015KT 9999 FEW032 BKN039 21/13 Q1021
  • 181350Z 25014KT 9999 FEW032 SCT042 21/13 Q1021
  • 181320Z 22014KT 9999 FEW033 21/12 Q1021
  • 181250Z 23014KT 9999 FEW036 22/12 Q1020

TAF TAF EGHH
Valide du 18 à 15h jusqu'au 19 à 00h UTC


181354Z 1815/1824 24012KT 9999 SCT035
PROB30
TEMPO 1818/1824 BKN008
ATIS : +44 1202 364 151
Météo : +44 1202 364 158 (TAF)
Pas de NOTAMs connus pour ce terrain.
1 SIGMET publié pour la FIR London (EGTT) :
 
Onde orographique forte
EGTT SIGMET 02 VALID 181400/181800 EGRR
EGTT LONDON FIR SEV MTW FCST WI N5500 E00014 - N5327 E00025 - N5320 W00228 - N5441 W00418 - N5500 W00437 - N5500 E00014 FL040/240 STNR NC=



MET'MAP, la Météo Aéronautique d'un coup d'oeil ! - Copyright ORBIFLY Décembre 2007 - Disclaimer

ORBIFLY MET'MAP TEAM :

Programmation & Développement : Alexandra Zaïnal
Conception & Développement : Baudouin d'Aumeries
Co-Programmation & Développement : Marc-Olivier Méhu
Soutien technique & logistique : Manuel Goepfert

Contact : metmap@orbifly.com




SOURCES & CREDITS :

   NOAA